Time;durP1;ratioP1;P1;durP2;ratioP2;P2;SDS_P1;SDS_P2;PMS_P1;PMS_P2;Temp;Humidity;BMP_temperature;BMP_pressure;BME280_temperature;BME280_humidity;BME280_pressure;Samples;Min_cycle;Max_cycle;Signal;HPM_P1;HPM_P2
2023/05/17 00:00:14;;;;;;;;;;;;;;;7.30;100.00;102515.16;5023092;28;19917;-53
2023/05/17 00:02:39;;;;;;;;;;;;;;;7.28;100.00;102513.25;5017117;28;20417;-51
2023/05/17 00:05:05;;;;;;;;;;;;;;;7.26;100.00;102510.59;5021254;28;20015;-50
2023/05/17 00:07:30;;;;;;;;;;;;;;;7.25;100.00;102508.81;5018382;28;20540;-51
2023/05/17 00:09:55;;;;;;;;;;;;;;;7.22;100.00;102517.19;5016720;28;19921;-50
2023/05/17 00:12:21;;;;;;;;;;;;;;;7.19;100.00;102526.31;5019615;28;20370;-53
2023/05/17 00:14:46;;;;;;;;;;;;;;;7.19;100.00;102516.09;5014684;28;19925;-54
2023/05/17 00:17:11;;;;;;;;;;;;;;;7.17;100.00;102520.22;5016536;28;19996;-54
2023/05/17 00:19:36;;;;;;;;;;;;;;;7.14;100.00;102526.00;5019397;28;19921;-53
2023/05/17 00:22:02;;;;;;;;;;;;;;;7.12;100.00;102519.00;5022149;28;19928;-52
2023/05/17 00:24:27;;;;;;;;;;;;;;;7.10;100.00;102518.91;5017202;28;19926;-53
2023/05/17 00:26:52;;;;;;;;;;;;;;;7.08;100.00;102519.56;5018770;28;20386;-51
2023/05/17 00:29:17;;;;;;;;;;;;;;;7.07;100.00;102520.38;5017948;28;19952;-53
2023/05/17 00:31:43;;;;;;;;;;;;;;;7.06;100.00;102523.72;5020210;28;19925;-50
2023/05/17 00:34:08;;;;;;;;;;;;;;;7.04;100.00;102520.13;5019110;28;19924;-53
2023/05/17 00:36:33;;;;;;;;;;;;;;;7.02;100.00;102520.03;5020631;28;20342;-52
2023/05/17 00:38:58;;;;;;;;;;;;;;;7.02;100.00;102520.03;5017034;28;19927;-54
2023/05/17 00:41:24;;;;;;;;;;;;;;;7.01;100.00;102519.94;5020431;28;19922;-52
2023/05/17 00:43:49;;;;;;;;;;;;;;;6.98;100.00;102521.53;5019618;28;20012;-52
2023/05/17 00:46:15;;;;;;;;;;;;;;;7.00;100.00;102521.63;5017755;28;20327;-51
2023/05/17 00:48:40;;;;;;;;;;;;;;;6.97;100.00;102522.28;5017659;28;20015;-53
2023/05/17 00:51:06;;;;;;;;;;;;;;;6.95;100.00;102513.63;5017803;28;19924;-50
2023/05/17 00:53:32;;;;;;;;;;;;;;;6.94;100.00;102510.97;5018871;28;19983;-51
2023/05/17 00:55:58;;;;;;;;;;;;;;;6.92;100.00;102510.88;5018533;28;19921;-53
2023/05/17 00:58:24;;;;;;;;;;;;;;;6.90;100.00;102504.75;5021393;28;19921;-54
2023/05/17 01:00:50;;;;;;;;;;;;;;;6.89;100.00;102510.63;5021859;28;19999;-54
2023/05/17 01:03:15;;;;;;;;;;;;;;;6.89;100.00;102520.88;5018911;28;19936;-52
2023/05/17 01:05:41;;;;;;;;;;;;;;;6.89;100.00;102519.97;5025118;28;19921;-53
2023/05/17 01:08:06;;;;;;;;;;;;;;;6.88;100.00;102516.53;5027006;28;19925;-55
2023/05/17 01:10:51;;;;;;;;;;;;;;;6.86;100.00;102509.56;5018684;28;19925;-55
2023/05/17 01:13:40;;;;;;;;;;;;;;;6.82;100.00;102505.00;5025205;28;19924;-53
2023/05/17 01:16:28;;;;;;;;;;;;;;;6.80;100.00;102512.56;5023743;28;20387;-50
2023/05/17 01:19:14;;;;;;;;;;;;;;;6.80;100.00;102517.69;5016199;28;20008;-52
2023/05/17 01:21:54;;;;;;;;;;;;;;;6.79;100.00;102518.44;5023936;28;19943;-53
2023/05/17 01:24:25;;;;;;;;;;;;;;;6.79;100.00;102525.22;5015597;28;20007;-51
2023/05/17 01:26:51;;;;;;;;;;;;;;;6.79;100.00;102523.56;5021177;28;19932;-54
2023/05/17 01:29:17;;;;;;;;;;;;;;;6.79;100.00;102523.56;5021847;28;19929;-53
2023/05/17 01:31:43;;;;;;;;;;;;;;;6.79;100.00;102515.00;5016102;28;19923;-53
2023/05/17 01:34:08;;;;;;;;;;;;;;;6.76;100.00;102515.69;5017865;28;20048;-52
2023/05/17 01:36:34;;;;;;;;;;;;;;;6.75;100.00;102519.03;5018537;28;19917;-52
2023/05/17 01:39:00;;;;;;;;;;;;;;;6.75;100.00;102515.59;5021984;28;20652;-52
2023/05/17 01:41:32;;;;;;;;;;;;;;;6.75;100.00;102516.47;5016797;28;19939;-54
2023/05/17 01:44:17;;;;;;;;;;;;;;;6.72;100.00;102519.69;5019691;28;20012;-53
2023/05/17 01:46:42;;;;;;;;;;;;;;;6.72;100.00;102511.13;5018178;28;19921;-54
2023/05/17 01:49:11;;;;;;;;;;;;;;;6.70;100.00;102510.16;5021748;28;20331;-52
2023/05/17 01:51:43;;;;;;;;;;;;;;;6.67;100.00;102515.94;5022009;28;20343;-52
2023/05/17 01:54:10;;;;;;;;;;;;;;;6.67;100.00;102517.59;5022887;28;20383;-54
2023/05/17 01:56:40;;;;;;;;;;;;;;;6.66;100.00;102518.38;5015959;28;20540;-54
2023/05/17 01:59:06;;;;;;;;;;;;;;;6.65;100.00;102521.72;5017639;28;19996;-53
2023/05/17 02:01:31;;;;;;;;;;;;;;;6.63;100.00;102526.72;5022382;28;20009;-53
2023/05/17 02:03:57;;;;;;;;;;;;;;;6.64;100.00;102518.28;5017404;28;20012;-53
2023/05/17 02:06:22;;;;;;;;;;;;;;;6.61;100.00;102519.72;5020346;28;19964;-53
2023/05/17 02:08:47;;;;;;;;;;;;;;;6.60;100.00;102517.94;5022829;28;19953;-53
2023/05/17 02:11:13;;;;;;;;;;;;;;;6.57;100.00;102518.63;5018886;28;19921;-54
2023/05/17 02:13:38;;;;;;;;;;;;;;;6.56;100.00;102513.41;5021977;28;19921;-50
2023/05/17 02:16:03;;;;;;;;;;;;;;;6.57;100.00;102518.63;5019666;28;19929;-52
2023/05/17 02:18:29;;;;;;;;;;;;;;;6.58;100.00;102514.41;5021631;28;19929;-51
2023/05/17 02:20:54;;;;;;;;;;;;;;;6.59;100.00;102513.63;5019869;28;19952;-54
2023/05/17 02:23:20;;;;;;;;;;;;;;;6.61;100.00;102514.59;5017130;28;19921;-53
2023/05/17 02:25:45;;;;;;;;;;;;;;;6.62;100.00;102499.41;5015697;28;19921;-54
2023/05/17 02:28:11;;;;;;;;;;;;;;;6.65;100.00;102503.81;5019779;28;19977;-54
2023/05/17 02:30:39;;;;;;;;;;;;;;;6.68;100.00;102521.94;5021398;28;20026;-54
2023/05/17 02:33:04;;;;;;;;;;;;;;;6.69;100.00;102513.50;5020630;28;19948;-53
2023/05/17 02:35:30;;;;;;;;;;;;;;;6.71;100.00;102514.47;5015839;28;19929;-53
2023/05/17 02:37:55;;;;;;;;;;;;;;;6.75;100.00;102530.94;5020400;28;20005;-52
2023/05/17 02:40:20;;;;;;;;;;;;;;;6.78;100.00;102526.00;5021897;28;19921;-53
2023/05/17 02:42:45;;;;;;;;;;;;;;;6.80;100.00;102527.03;5015268;28;19921;-53
2023/05/17 02:45:11;;;;;;;;;;;;;;;6.85;100.00;102523.97;5021009;28;20386;-52
2023/05/17 02:47:36;;;;;;;;;;;;;;;6.88;100.00;102525.88;5022408;28;20295;-53
2023/05/17 02:50:01;;;;;;;;;;;;;;;6.91;100.00;102516.72;5021631;28;19940;-54
2023/05/17 02:52:26;;;;;;;;;;;;;;;6.95;100.00;102520.41;5016092;28;19921;-52
2023/05/17 02:54:52;;;;;;;;;;;;;;;6.99;100.00;102530.97;5021919;28;19980;-55
2023/05/17 02:57:17;;;;;;;;;;;;;;;7.04;100.00;102532.94;5017343;28;19944;-53
2023/05/17 02:59:42;;;;;;;;;;;;;;;7.06;100.00;102529.72;5018368;28;19987;-54
2023/05/17 03:02:07;;;;;;;;;;;;;;;7.09;100.00;102529.91;5020707;28;20390;-53
2023/05/17 03:04:32;;;;;;;;;;;;;;;7.11;100.00;102532.59;5019724;28;20318;-52
2023/05/17 03:06:58;;;;;;;;;;;;;;;7.13;100.00;102538.69;5018800;28;19921;-53
2023/05/17 03:09:23;;;;;;;;;;;;;;;7.14;100.00;102538.78;5017301;28;19932;-54
2023/05/17 03:11:48;;;;;;;;;;;;;;;7.16;100.00;102542.38;5017299;28;19934;-53
2023/05/17 03:14:13;;;;;;;;;;;;;;;7.18;100.00;102539.91;5016671;28;20287;-54
2023/05/17 03:16:39;;;;;;;;;;;;;;;7.21;100.00;102545.22;5005758;28;20019;-53
2023/05/17 03:19:04;;;;;;;;;;;;;;;7.26;100.00;102548.97;5016834;28;19953;-54
2023/05/17 03:21:30;;;;;;;;;;;;;;;7.29;100.00;102550.88;5017600;28;20347;-55
2023/05/17 03:23:55;;;;;;;;;;;;;;;7.31;100.00;102551.84;5021290;28;19945;-54
2023/05/17 03:26:22;;;;;;;;;;;;;;;7.32;100.00;102548.50;5022382;28;20294;-55
2023/05/17 03:28:48;;;;;;;;;;;;;;;7.35;100.00;102554.75;5018558;28;20391;-53
2023/05/17 03:31:13;;;;;;;;;;;;;;;7.33;100.00;102553.72;5017384;28;20007;-54
2023/05/17 03:33:38;;;;;;;;;;;;;;;7.33;100.00;102556.28;5014874;28;20361;-53
2023/05/17 03:36:04;;;;;;;;;;;;;;;7.32;100.00;102551.94;5019370;28;20521;-53
2023/05/17 03:38:29;;;;;;;;;;;;;;;7.30;100.00;102561.22;5015990;28;20126;-55
2023/05/17 03:40:54;;;;;;;;;;;;;;;7.30;100.00;102568.00;5018536;28;19945;-54
2023/05/17 03:43:20;;;;;;;;;;;;;;;7.26;100.00;102569.44;5022071;28;19929;-52
2023/05/17 03:45:45;;;;;;;;;;;;;;;7.24;100.00;102571.91;5016475;28;19975;-53
2023/05/17 03:48:10;;;;;;;;;;;;;;;7.22;100.00;102573.47;5016141;28;19925;-54
2023/05/17 03:50:36;;;;;;;;;;;;;;;7.19;100.00;102564.69;5017828;28;19979;-54
2023/05/17 03:53:01;;;;;;;;;;;;;;;7.17;100.00;102567.16;5021856;28;19917;-54
2023/05/17 03:55:26;;;;;;;;;;;;;;;7.16;100.00;102569.59;5016828;28;19917;-54
2023/05/17 03:57:51;;;;;;;;;;;;;;;7.18;100.00;102575.72;5013860;28;20804;-54
2023/05/17 04:00:20;;;;;;;;;;;;;;;7.18;100.00;102573.16;5021974;28;20466;-54
2023/05/17 04:02:46;;;;;;;;;;;;;;;7.18;100.00;102578.28;5018068;28;19956;-51
2023/05/17 04:05:12;;;;;;;;;;;;;;;7.17;100.00;102574.84;5017402;28;19971;-53
2023/05/17 04:07:37;;;;;;;;;;;;;;;7.18;100.00;102588.50;5015900;28;19922;-54
2023/05/17 04:10:03;;;;;;;;;;;;;;;7.18;100.00;102589.41;5021412;28;21148;-55
2023/05/17 04:12:28;;;;;;;;;;;;;;;7.19;100.00;102585.16;5018341;28;19936;-54
2023/05/17 04:14:53;;;;;;;;;;;;;;;7.21;100.00;102589.59;5013599;28;20236;-55
2023/05/17 04:17:18;;;;;;;;;;;;;;;7.21;100.00;102579.34;5013687;28;20004;-54
2023/05/17 04:19:44;;;;;;;;;;;;;;;7.23;100.00;102584.59;5017996;28;20404;-55
2023/05/17 04:22:09;;;;;;;;;;;;;;;7.24;100.00;102589.81;5017708;28;19971;-54
2023/05/17 04:24:34;;;;;;;;;;;;;;;7.26;100.00;102592.47;5018515;28;20029;-55
2023/05/17 04:26:59;;;;;;;;;;;;;;;7.29;100.00;102597.81;5020743;28;19925;-54
2023/05/17 04:29:25;;;;;;;;;;;;;;;7.30;100.00;102593.59;5015729;28;20315;-54
2023/05/17 04:31:50;;;;;;;;;;;;;;;7.34;100.00;102604.16;5022836;28;19929;-54
2023/05/17 04:34:16;;;;;;;;;;;;;;;7.37;100.00;102601.78;5010680;28;19929;-54
2023/05/17 04:36:41;;;;;;;;;;;;;;;7.44;100.00;102609.09;5018990;28;20367;-54
2023/05/17 04:39:06;;;;;;;;;;;;;;;7.61;100.00;102611.91;5020935;28;19978;-54
2023/05/17 04:41:32;;;;;;;;;;;;;;;7.72;100.00;102603.28;5021453;28;19931;-55
2023/05/17 04:43:57;;;;;;;;;;;;;;;7.80;100.00;102612.38;5025216;28;19929;-53
2023/05/17 04:46:22;;;;;;;;;;;;;;;7.84;100.00;102616.91;5023762;28;19925;-52
2023/05/17 04:48:48;;;;;;;;;;;;;;;7.89;100.00;102614.69;5020822;28;20380;-54
2023/05/17 04:51:13;;;;;;;;;;;;;;;7.92;100.00;102619.97;5018784;28;20399;-56
2023/05/17 04:53:38;;;;;;;;;;;;;;;7.97;100.00;102622.06;5028652;28;20319;-52
2023/05/17 04:56:04;;;;;;;;;;;;;;;8.05;100.00;102631.13;5024216;28;20074;-54
2023/05/17 04:58:30;;;;;;;;;;;;;;;8.12;100.00;102629.88;5018557;28;20269;-53
2023/05/17 05:00:56;;;;;;;;;;;;;;;8.27;100.00;102630.00;5026790;28;19960;-54
2023/05/17 05:03:22;;;;;;;;;;;;;;;8.69;100.00;102636.16;5017158;28;19921;-54
2023/05/17 05:05:47;;;;;;;;;;;;;;;9.22;100.00;102636.06;5024761;28;19979;-53
2023/05/17 05:08:12;;;;;;;;;;;;;;;9.70;100.00;102640.72;5023289;28;19933;-54
2023/05/17 05:10:37;;;;;;;;;;;;;;;9.90;100.00;102637.69;5024071;28;19940;-51
2023/05/17 05:13:03;;;;;;;;;;;;;;;10.25;100.00;102640.53;5028202;28;19917;-50
2023/05/17 05:15:28;;;;;;;;;;;;;;;10.77;100.00;102644.38;5020113;28;19925;-51
2023/05/17 05:17:53;;;;;;;;;;;;;;;11.34;100.00;102647.47;5025833;28;19913;-51
2023/05/17 05:20:18;;;;;;;;;;;;;;;11.89;99.32;102651.28;5021752;28;19917;-51
2023/05/17 05:22:44;;;;;;;;;;;;;;;12.33;97.12;102655.19;5023756;28;19921;-52
2023/05/17 05:25:09;;;;;;;;;;;;;;;12.68;96.54;102654.34;5021444;28;19922;-53
2023/05/17 05:27:34;;;;;;;;;;;;;;;13.16;95.16;102662.59;5025199;28;19921;-53
2023/05/17 05:30:00;;;;;;;;;;;;;;;13.59;91.24;102667.16;5021291;28;19983;-50
2023/05/17 05:32:25;;;;;;;;;;;;;;;13.89;91.45;102663.34;5024935;28;20364;-52
2023/05/17 05:34:50;;;;;;;;;;;;;;;14.10;89.87;102659.91;5018664;28;20391;-51
2023/05/17 05:37:18;;;;;;;;;;;;;;;14.35;88.36;102662.69;5024255;28;20540;-52
2023/05/17 05:39:43;;;;;;;;;;;;;;;14.57;85.20;102663.59;5023133;28;19932;-53
2023/05/17 05:42:08;;;;;;;;;;;;;;;14.80;85.34;102674.84;5018229;28;19917;-53
2023/05/17 05:44:33;;;;;;;;;;;;;;;14.94;87.41;102665.94;5015735;28;20012;-52
2023/05/17 05:46:58;;;;;;;;;;;;;;;15.05;87.51;102674.13;5015132;28;19925;-53
2023/05/17 05:49:24;;;;;;;;;;;;;;;15.39;86.20;102676.25;5016968;28;19984;-53
2023/05/17 05:51:49;;;;;;;;;;;;;;;15.62;82.97;102674.53;5014542;28;19933;-52
2023/05/17 05:54:15;;;;;;;;;;;;;;;15.96;83.73;102676.66;5013368;28;19921;-54
2023/05/17 05:56:40;;;;;;;;;;;;;;;16.07;79.22;102683.94;5014229;28;19932;-54
2023/05/17 05:59:05;;;;;;;;;;;;;;;16.05;81.62;102680.41;5022743;28;20019;-53
2023/05/17 06:01:30;;;;;;;;;;;;;;;16.00;76.83;102684.56;5020973;28;19999;-53
2023/05/17 06:03:56;;;;;;;;;;;;;;;15.99;71.55;102684.53;5019318;28;19917;-53
2023/05/17 06:06:21;;;;;;;;;;;;;;;15.95;74.04;102687.81;5020404;28;19925;-53
2023/05/17 06:08:46;;;;;;;;;;;;;;;15.91;77.55;102702.41;5024087;28;20262;-54
2023/05/17 06:11:15;;;;;;;;;;;;;;;15.93;73.25;102698.16;5021701;28;19995;-54
2023/05/17 06:13:40;;;;;;;;;;;;;;;15.67;67.88;102701.53;5021282;28;20291;-52
2023/05/17 06:16:05;;;;;;;;;;;;;;;15.57;71.62;102705.47;5019929;28;19922;-52
2023/05/17 06:18:31;;;;;;;;;;;;;;;15.51;67.05;102713.00;5021918;28;19935;-53
2023/05/17 06:20:56;;;;;;;;;;;;;;;15.46;67.15;102718.03;5023606;28;19928;-52
2023/05/17 06:23:21;;;;;;;;;;;;;;;15.56;71.02;102711.47;5016707;28;19928;-52
2023/05/17 06:25:47;;;;;;;;;;;;;;;15.91;72.68;102718.00;5019717;28;20019;-53
2023/05/17 06:28:12;;;;;;;;;;;;;;;16.01;64.14;102717.47;5019827;28;20047;-52
2023/05/17 06:30:37;;;;;;;;;;;;;;;15.75;66.99;102726.91;5017955;28;19924;-52
2023/05/17 06:33:02;;;;;;;;;;;;;;;15.73;62.08;102727.69;5015944;28;19928;-53
2023/05/17 06:35:28;;;;;;;;;;;;;;;15.81;64.13;102721.94;5022066;28;20299;-57
2023/05/17 06:37:53;;;;;;;;;;;;;;;15.55;65.88;102723.56;5025218;28;20391;-54
2023/05/17 06:40:19;;;;;;;;;;;;;;;15.63;62.71;102730.78;5020896;28;19919;-53
2023/05/17 06:42:44;;;;;;;;;;;;;;;15.69;63.00;102726.69;5023306;28;20020;-54
2023/05/17 06:45:09;;;;;;;;;;;;;;;15.77;63.95;102729.56;5018762;28;19921;-54
2023/05/17 06:47:35;;;;;;;;;;;;;;;15.85;63.60;102725.56;5018662;28;19931;-56
2023/05/17 06:50:00;;;;;;;;;;;;;;;16.11;60.09;102728.19;5023282;28;19936;-56
2023/05/17 06:52:25;;;;;;;;;;;;;;;16.05;59.19;102727.13;5023305;28;20445;-56
2023/05/17 06:54:51;;;;;;;;;;;;;;;16.00;60.13;102726.06;5021353;28;20145;-56
2023/05/17 06:57:16;;;;;;;;;;;;;;;16.01;58.04;102732.16;5017112;28;19922;-56
2023/05/17 06:59:42;;;;;;;;;;;;;;;16.00;58.49;102731.28;5015701;28;19929;-54
2023/05/17 07:02:07;;;;;;;;;;;;;;;15.59;56.73;102737.50;5019662;28;19952;-57
2023/05/17 07:04:32;;;;;;;;;;;;;;;15.35;54.91;102739.19;5021159;28;19925;-56
2023/05/17 07:06:57;;;;;;;;;;;;;;;15.38;59.29;102732.41;5020965;28;19920;-56
2023/05/17 07:09:23;;;;;;;;;;;;;;;15.08;56.47;102736.41;5020342;28;19933;-57
2023/05/17 07:11:48;;;;;;;;;;;;;;;14.82;60.33;102732.78;5021405;28;20411;-57
2023/05/17 07:14:13;;;;;;;;;;;;;;;14.99;59.03;102743.00;5019551;28;20298;-58
2023/05/17 07:16:38;;;;;;;;;;;;;;;15.20;59.24;102744.66;5019663;28;19956;-57
2023/05/17 07:19:04;;;;;;;;;;;;;;;15.18;57.50;102748.91;5028506;28;19932;-57
2023/05/17 07:21:30;;;;;;;;;;;;;;;15.13;59.90;102751.31;5024015;28;20302;-57
2023/05/17 07:23:55;;;;;;;;;;;;;;;15.21;55.53;102744.72;5019485;28;20442;-56
2023/05/17 07:26:20;;;;;;;;;;;;;;;15.16;57.98;102750.53;5018064;28;19980;-58
2023/05/17 07:28:46;;;;;;;;;;;;;;;14.88;53.46;102753.75;5017913;28;19933;-58
2023/05/17 07:31:11;;;;;;;;;;;;;;;14.67;56.13;102753.75;5019476;28;19918;-56
2023/05/17 07:33:37;;;;;;;;;;;;;;;14.65;54.81;102756.28;5019663;28;19960;-55
2023/05/17 07:36:02;;;;;;;;;;;;;;;14.58;53.49;102755.97;5018550;28;19929;-56
2023/05/17 07:38:27;;;;;;;;;;;;;;;14.64;54.68;102757.09;5021226;28;20023;-53
2023/05/17 07:40:53;;;;;;;;;;;;;;;14.52;53.62;102764.38;5021230;28;19930;-55
2023/05/17 07:43:18;;;;;;;;;;;;;;;14.75;53.49;102765.31;5019466;28;20395;-56
2023/05/17 07:45:43;;;;;;;;;;;;;;;14.75;52.81;102767.91;5017304;28;19957;-54
2023/05/17 07:48:09;;;;;;;;;;;;;;;14.87;53.80;102767.53;5020112;28;19928;-56
2023/05/17 07:50:34;;;;;;;;;;;;;;;15.15;51.81;102764.31;5005488;28;19976;-55
2023/05/17 07:53:00;;;;;;;;;;;;;;;15.25;50.78;102769.06;5019644;28;19921;-54
2023/05/17 07:55:25;;;;;;;;;;;;;;;15.34;54.00;102768.50;5022431;28;19952;-53
2023/05/17 07:57:51;;;;;;;;;;;;;;;15.39;51.32;102777.38;5019359;28;20024;-55
2023/05/17 08:00:18;;;;;;;;;;;;;;;15.33;51.06;102774.53;5018431;28;19918;-54
2023/05/17 08:02:43;;;;;;;;;;;;;;;15.24;50.02;102780.25;5016726;28;19925;-55
2023/05/17 08:05:09;;;;;;;;;;;;;;;14.89;53.41;102778.84;5021138;28;19913;-54
2023/05/17 08:07:34;;;;;;;;;;;;;;;14.49;53.69;102778.03;5024333;28;19921;-54
2023/05/17 08:09:59;;;;;;;;;;;;;;;14.12;53.48;102780.72;5022426;28;19932;-55
2023/05/17 08:12:24;;;;;;;;;;;;;;;14.09;55.41;102780.59;5019196;28;20310;-55
2023/05/17 08:14:50;;;;;;;;;;;;;;;14.54;54.85;102782.53;5024745;28;19917;-55
2023/05/17 08:17:15;;;;;;;;;;;;;;;14.70;51.58;102784.97;5018200;28;19925;-54
2023/05/17 08:19:41;;;;;;;;;;;;;;;14.55;50.92;102780.00;5024727;28;19921;-54
2023/05/17 08:22:06;;;;;;;;;;;;;;;14.38;52.23;102787.06;5025148;28;19929;-53
2023/05/17 08:24:31;;;;;;;;;;;;;;;14.52;54.06;102784.19;5017090;28;20001;-54
2023/05/17 08:26:57;;;;;;;;;;;;;;;14.84;51.55;102793.28;5016135;28;19951;-54
2023/05/17 08:29:22;;;;;;;;;;;;;;;15.12;50.83;102784.94;5020231;28;20399;-56
2023/05/17 08:31:47;;;;;;;;;;;;;;;15.38;48.42;102789.44;5018476;28;20020;-54
2023/05/17 08:34:13;;;;;;;;;;;;;;;15.31;46.14;102787.44;5018241;28;19943;-54
2023/05/17 08:36:38;;;;;;;;;;;;;;;15.13;48.99;102781.53;5016915;28;19918;-54
2023/05/17 08:39:03;;;;;;;;;;;;;;;15.23;49.31;102781.09;5016845;28;19979;-56
2023/05/17 08:41:29;;;;;;;;;;;;;;;15.46;52.00;102772.47;5017604;28;19931;-54
2023/05/17 08:43:55;;;;;;;;;;;;;;;15.86;49.33;102776.59;5019888;28;19924;-54
2023/05/17 08:46:22;;;;;;;;;;;;;;;16.05;49.18;102776.44;5015758;28;19983;-54
2023/05/17 08:48:51;;;;;;;;;;;;;;;15.91;45.68;102771.59;5022050;28;19932;-56
2023/05/17 08:51:18;;;;;;;;;;;;;;;15.68;48.57;102786.28;5021469;28;19925;-57
2023/05/17 08:53:46;;;;;;;;;;;;;;;15.26;46.29;102791.56;5022217;28;19924;-56
2023/05/17 08:56:13;;;;;;;;;;;;;;;15.03;47.16;102791.50;5023257;28;20292;-57
2023/05/17 08:58:41;;;;;;;;;;;;;;;14.85;48.15;102788.16;5022296;28;19913;-56
2023/05/17 09:01:07;;;;;;;;;;;;;;;14.81;49.53;102778.53;5022767;28;19955;-55
2023/05/17 09:03:34;;;;;;;;;;;;;;;14.99;50.61;102788.75;5022795;28;19960;-55
2023/05/17 09:05:59;;;;;;;;;;;;;;;14.88;49.25;102792.63;5019400;28;19918;-54
2023/05/17 09:08:25;;;;;;;;;;;;;;;14.72;48.88;102785.91;5022490;28;20283;-54
2023/05/17 09:10:51;;;;;;;;;;;;;;;14.51;49.22;102788.50;5017513;28;19951;-55
2023/05/17 09:13:16;;;;;;;;;;;;;;;14.57;50.45;102798.22;5023501;28;19917;-55
2023/05/17 09:15:43;;;;;;;;;;;;;;;14.74;50.37;102790.34;5017649;28;20253;-55
2023/05/17 09:18:11;;;;;;;;;;;;;;;14.75;51.29;102793.81;5024665;28;19917;-56
2023/05/17 09:20:38;;;;;;;;;;;;;;;14.81;49.50;102795.78;5016455;28;19925;-57
2023/05/17 09:23:04;;;;;;;;;;;;;;;14.91;50.12;102801.38;5021975;28;20382;-55
2023/05/17 09:25:30;;;;;;;;;;;;;;;15.13;48.83;102792.78;5025165;28;19925;-55
2023/05/17 09:27:59;;;;;;;;;;;;;;;15.44;48.70;102789.69;5017085;28;20381;-56
2023/05/17 09:30:32;;;;;;;;;;;;;;;15.44;49.21;102792.28;5019575;28;20374;-54
2023/05/17 09:32:57;;;;;;;;;;;;;;;15.44;49.03;102791.38;5017602;28;20288;-56
2023/05/17 09:35:32;;;;;;;;;;;;;;;15.49;48.56;102801.13;5016073;28;20383;-56
2023/05/17 09:38:07;;;;;;;;;;;;;;;15.67;48.69;102795.78;5020544;28;19976;-55
2023/05/17 09:40:33;;;;;;;;;;;;;;;15.92;48.62;102797.56;5020819;28;19914;-56
2023/05/17 09:42:58;;;;;;;;;;;;;;;15.94;49.28;102797.63;5024232;28;20031;-55
2023/05/17 09:45:23;;;;;;;;;;;;;;;16.03;48.41;102792.78;5022265;28;19924;-55
2023/05/17 09:47:50;;;;;;;;;;;;;;;16.17;47.52;102790.69;5024253;28;19921;-55
2023/05/17 09:50:18;;;;;;;;;;;;;;;16.17;48.74;102786.38;5019851;28;19926;-54
2023/05/17 09:52:44;;;;;;;;;;;;;;;15.90;47.22;102788.88;5020887;28;19932;-55
2023/05/17 09:55:10;;;;;;;;;;;;;;;15.52;48.57;102792.56;5020471;28;20286;-54
2023/05/17 09:57:37;;;;;;;;;;;;;;;15.23;48.92;102796.63;5021876;28;20093;-53
2023/05/17 10:00:07;;;;;;;;;;;;;;;15.12;47.87;102790.13;5015297;28;19914;-56
2023/05/17 10:02:35;;;;;;;;;;;;;;;15.23;48.80;102794.03;5016302;28;20354;-44
2023/05/17 10:05:04;;;;;;;;;;;;;;;15.38;47.56;102785.97;5019496;28;19917;-45
2023/05/17 10:07:30;;;;;;;;;;;;;;;15.39;47.84;102787.72;5015865;28;19940;-47
2023/05/17 10:09:57;;;;;;;;;;;;;;;15.57;46.46;102785.84;5019853;28;19982;-50
2023/05/17 10:12:23;;;;;;;;;;;;;;;15.64;45.75;102795.66;5021224;28;19929;-47
2023/05/17 10:14:49;;;;;;;;;;;;;;;15.46;47.76;102793.19;5021858;28;19929;-45
2023/05/17 10:17:16;;;;;;;;;;;;;;;15.46;47.08;102798.38;5011860;28;19917;-48
2023/05/17 10:19:42;;;;;;;;;;;;;;;15.28;47.20;102795.06;5015383;28;20295;-47
2023/05/17 10:22:07;;;;;;;;;;;;;;;15.29;46.32;102789.09;5020777;28;20355;-45
2023/05/17 10:24:33;;;;;;;;;;;;;;;15.31;45.69;102795.22;5020670;28;19940;-48
2023/05/17 10:26:59;;;;;;;;;;;;;;;15.44;44.04;102799.16;5020597;28;19917;-49
2023/05/17 10:29:24;;;;;;;;;;;;;;;15.61;42.90;102799.81;5021192;28;19925;-49
2023/05/17 10:31:50;;;;;;;;;;;;;;;15.55;44.68;102793.56;5019060;28;19924;-45
2023/05/17 10:34:16;;;;;;;;;;;;;;;15.40;44.45;102786.91;5022848;28;20115;-46
2023/05/17 10:36:47;;;;;;;;;;;;;;;15.37;46.95;102785.09;5011986;28;19921;-47
2023/05/17 10:39:13;;;;;;;;;;;;;;;15.55;44.87;102788.38;5015305;28;19914;-47
2023/05/17 10:41:40;;;;;;;;;;;;;;;15.46;45.09;102784.53;5016139;28;20410;-46
2023/05/17 10:44:07;;;;;;;;;;;;;;;15.55;46.25;102785.78;5015661;28;19996;-47
2023/05/17 10:46:32;;;;;;;;;;;;;;;15.60;44.05;102779.91;5025601;28;19948;-48
2023/05/17 10:48:59;;;;;;;;;;;;;;;15.66;45.74;102780.19;5021603;28;19928;-46
2023/05/17 10:51:37;;;;;;;;;;;;;;;15.74;45.02;102778.75;5024020;28;19948;-48
2023/05/17 10:54:02;;;;;;;;;;;;;;;15.71;43.76;102779.53;5021383;28;20435;-47
2023/05/17 10:56:31;;;;;;;;;;;;;;;15.80;43.87;102777.25;5020159;28;19961;-49
2023/05/17 10:59:16;;;;;;;;;;;;;;;15.77;42.92;102774.56;5016904;28;19918;-49
2023/05/17 11:01:56;;;;;;;;;;;;;;;15.87;43.78;102767.97;5017581;28;19928;-47
2023/05/17 11:04:24;;;;;;;;;;;;;;;15.99;45.36;102757.16;5023416;28;19913;-48
2023/05/17 11:07:08;;;;;;;;;;;;;;;16.06;43.39;102762.63;5021633;28;19952;-46
2023/05/17 11:09:33;;;;;;;;;;;;;;;16.15;42.22;102756.00;5016905;28;19921;-48
2023/05/17 11:12:03;;;;;;;;;;;;;;;16.16;44.86;102762.97;5018603;28;19921;-46
2023/05/17 11:14:42;;;;;;;;;;;;;;;16.14;44.20;102759.41;5018246;28;20011;-45
2023/05/17 11:17:36;;;;;;;;;;;;;;;16.05;44.41;102755.66;5018655;28;19920;-47
2023/05/17 11:20:05;;;;;;;;;;;;;;;16.01;43.79;102771.06;5019765;28;19913;-46
2023/05/17 11:22:54;;;;;;;;;;;;;;;16.04;43.37;102766.00;5021674;28;19917;-49
2023/05/17 11:25:19;;;;;;;;;;;;;;;15.92;44.95;102762.97;5026809;28;19917;-45
2023/05/17 11:27:45;;;;;;;;;;;;;;;15.88;42.88;102763.69;5004180;28;20004;-47
2023/05/17 11:30:19;;;;;;;;;;;;;;;15.76;44.04;102770.19;5018876;28;20291;-48
2023/05/17 11:33:01;;;;;;;;;;;;;;;15.87;44.57;102760.19;5017820;28;19921;-48
2023/05/17 11:35:27;;;;;;;;;;;;;;;16.09;42.63;102759.28;5016885;28;19960;-51
2023/05/17 11:37:53;;;;;;;;;;;;;;;16.18;40.58;102766.50;5021691;28;19953;-47
2023/05/17 11:40:26;;;;;;;;;;;;;;;16.07;39.46;102772.16;5015888;28;19948;-48
2023/05/17 11:43:08;;;;;;;;;;;;;;;16.03;40.05;102765.13;5018922;28;19968;-46
2023/05/17 11:45:50;;;;;;;;;;;;;;;16.16;41.29;102763.84;5015396;28;19949;-49
2023/05/17 11:48:16;;;;;;;;;;;;;;;16.22;41.78;102760.59;5020042;28;19928;-46
2023/05/17 11:50:44;;;;;;;;;;;;;;;16.20;42.23;102760.53;5020035;28;20326;-50
2023/05/17 11:53:10;;;;;;;;;;;;;;;16.08;42.11;102773.09;5018869;28;20401;-47
2023/05/17 11:55:46;;;;;;;;;;;;;;;15.92;42.18;102770.75;5020418;28;19925;-47
2023/05/17 11:58:12;;;;;;;;;;;;;;;15.75;41.90;102759.75;5017820;28;20056;-49
2023/05/17 12:00:40;;;;;;;;;;;;;;;15.78;43.68;102760.75;5019945;28;21606;-48
2023/05/17 12:03:18;;;;;;;;;;;;;;;15.81;44.00;102760.84;5017221;28;20052;-49
2023/05/17 12:05:44;;;;;;;;;;;;;;;16.01;43.26;102758.97;5019484;28;19978;-48
2023/05/17 12:08:10;;;;;;;;;;;;;;;16.19;43.28;102758.75;5020519;28;19917;-50
2023/05/17 12:10:36;;;;;;;;;;;;;;;16.40;41.67;102765.53;5018860;28;20333;-49
2023/05/17 12:13:01;;;;;;;;;;;;;;;16.11;42.36;102761.91;5020248;28;20344;-49
2023/05/17 12:15:27;;;;;;;;;;;;;;;15.71;43.23;102756.19;5019189;28;19928;-47
2023/05/17 12:17:53;;;;;;;;;;;;;;;15.80;43.94;102755.63;5019484;28;19914;-50
2023/05/17 12:20:19;;;;;;;;;;;;;;;15.67;43.06;102759.47;5019500;28;19966;-50
2023/05/17 12:22:54;;;;;;;;;;;;;;;15.77;43.34;102752.91;5019907;28;19917;-50
2023/05/17 12:25:22;;;;;;;;;;;;;;;15.96;42.13;102754.47;5014747;28;19917;-45
2023/05/17 12:27:49;;;;;;;;;;;;;;;16.12;42.88;102750.69;5020608;28;19940;-46
2023/05/17 12:30:14;;;;;;;;;;;;;;;16.34;40.67;102750.63;5021188;28;19929;-48
2023/05/17 12:32:40;;;;;;;;;;;;;;;16.20;40.24;102754.44;5019306;28;20230;-50